createdAt,value
2023-01-13T00:02:06.258Z,96274.72
2023-01-13T00:04:39.185Z,96259.94
2023-01-13T00:07:13.702Z,96260.09
2023-01-13T00:09:46.642Z,96259.78
2023-01-13T00:12:19.710Z,96256.00
2023-01-13T00:14:52.626Z,96243.44
2023-01-13T00:17:25.605Z,96243.59
2023-01-13T00:19:58.589Z,96229.16
2023-01-13T00:22:34.659Z,96219.75
2023-01-13T00:25:08.329Z,96215.19
2023-01-13T00:27:41.243Z,96211.06
2023-01-13T00:30:14.909Z,96212.31
2023-01-13T00:32:47.841Z,96212.03
2023-01-13T00:35:20.944Z,96220.63
2023-01-13T00:37:55.347Z,96220.31
2023-01-13T00:40:28.332Z,96218.13
2023-01-13T00:43:18.821Z,96216.34
2023-01-13T00:45:52.598Z,96211.47
2023-01-13T00:48:26.302Z,96213.06
2023-01-13T00:51:00.860Z,96213.22
2023-01-13T00:53:37.649Z,96204.84
2023-01-13T00:56:14.358Z,96199.19
2023-01-13T00:58:47.896Z,96206.56
2023-01-13T01:01:22.934Z,96202.47
2023-01-13T01:03:56.307Z,96201.81
2023-01-13T01:06:29.596Z,96213.75
2023-01-13T01:09:15.344Z,96210.22
2023-01-13T01:11:48.378Z,96195.47
2023-01-13T01:14:21.404Z,96197.16
2023-01-13T01:16:54.995Z,96191.16
2023-01-13T01:19:27.993Z,96192.41
2023-01-13T01:22:00.912Z,96195.97
2023-01-13T01:24:35.275Z,96211.03
2023-01-13T01:27:08.210Z,96206.94
2023-01-13T01:29:41.168Z,96211.94
2023-01-13T01:32:14.185Z,96222.78
2023-01-13T01:34:47.109Z,96231.22
2023-01-13T01:37:19.988Z,96232.47
2023-01-13T01:39:54.580Z,96229.47
2023-01-13T01:42:45.579Z,96226.94
2023-01-13T01:45:21.137Z,96229.72
2023-01-13T01:48:05.028Z,96221.41
2023-01-13T01:50:38.720Z,96225.75
2023-01-13T01:53:15.882Z,96222.91
2023-01-13T01:55:50.271Z,96208.84
2023-01-13T01:58:28.492Z,96201.44
2023-01-13T02:01:01.889Z,96190.44
2023-01-13T02:03:38.515Z,96192.44
2023-01-13T02:06:12.099Z,96187.09
2023-01-13T02:08:45.484Z,96192.09
2023-01-13T02:12:01.572Z,96180.31
2023-01-13T02:14:35.826Z,96177.50
2023-01-13T02:17:27.288Z,96188.19
2023-01-13T02:20:29.810Z,96184.31
2023-01-13T02:23:57.684Z,96178.97
2023-01-13T02:27:05.915Z,96179.28
2023-01-13T02:30:11.097Z,96177.72
2023-01-13T02:32:53.691Z,96178.50
2023-01-13T02:35:32.226Z,96183.53
2023-01-13T02:38:07.189Z,96175.81
2023-01-13T02:40:48.598Z,96190.88
2023-01-13T02:43:46.011Z,96192.44
2023-01-13T02:46:29.419Z,96183.75
2023-01-13T02:49:07.519Z,96194.44
2023-01-13T02:51:43.159Z,96194.13
2023-01-13T02:54:21.846Z,96193.13
2023-01-13T02:56:57.361Z,96186.69
2023-01-13T02:59:32.474Z,96187.91
2023-01-13T03:02:10.443Z,96184.25
2023-01-13T03:04:49.784Z,96195.06
2023-01-13T03:08:07.311Z,96178.72
2023-01-13T03:10:54.932Z,96190.75
2023-01-13T03:13:44.747Z,96198.91
2023-01-13T03:16:29.442Z,96187.06
2023-01-13T03:19:15.398Z,96199.00
2023-01-13T03:21:56.870Z,96181.06
2023-01-13T03:24:36.357Z,96183.09
2023-01-13T03:27:16.382Z,96183.88
2023-01-13T03:29:57.140Z,96178.84
2023-01-13T03:32:34.412Z,96178.06
2023-01-13T03:35:16.834Z,96184.06
2023-01-13T03:37:54.412Z,96174.84
2023-01-13T03:40:33.115Z,96172.81
2023-01-13T03:43:29.616Z,96166.56
2023-01-13T03:46:09.479Z,96168.34
2023-01-13T03:48:45.011Z,96162.84
2023-01-13T03:51:23.083Z,96158.63
2023-01-13T03:53:59.398Z,96157.41
2023-01-13T03:56:38.575Z,96165.75
2023-01-13T03:59:18.037Z,96150.38
2023-01-13T04:01:58.677Z,96160.28
2023-01-13T04:04:35.647Z,96156.03
2023-01-13T04:07:19.795Z,96161.38
2023-01-13T04:09:55.929Z,96164.41
2023-01-13T04:12:52.195Z,96166.28
2023-01-13T04:15:28.415Z,96165.19
2023-01-13T04:18:12.729Z,96158.72
2023-01-13T04:20:48.392Z,96153.38
2023-01-13T04:23:23.852Z,96153.03
2023-01-13T04:25:57.218Z,96148.00
2023-01-13T04:28:30.288Z,96146.59
2023-01-13T04:31:03.303Z,96151.94
2023-01-13T04:33:36.569Z,96150.81
2023-01-13T04:36:10.027Z,96133.22
2023-01-13T04:38:44.701Z,96143.59
2023-01-13T04:41:17.587Z,96136.69
2023-01-13T04:43:50.899Z,96138.56
2023-01-13T04:46:23.820Z,96139.03
2023-01-13T04:48:56.823Z,96137.47
2023-01-13T04:51:29.781Z,96135.56
2023-01-13T04:54:04.207Z,96136.34
2023-01-13T04:56:37.063Z,96139.81
2023-01-13T04:59:10.550Z,96137.59
2023-01-13T05:01:43.557Z,96140.69
2023-01-13T05:04:17.148Z,96129.56
2023-01-13T05:06:50.071Z,96143.38
2023-01-13T05:09:24.402Z,96140.69
2023-01-13T05:12:14.871Z,96141.47
2023-01-13T05:15:05.096Z,96141.47
2023-01-13T05:17:38.153Z,96139.59
2023-01-13T05:20:12.747Z,96128.09
2023-01-13T05:23:03.473Z,96132.34
2023-01-13T05:25:44.813Z,96127.78
2023-01-13T05:28:18.036Z,96138.69
2023-01-13T05:30:51.348Z,96146.41
2023-01-13T05:33:24.307Z,96135.56
2023-01-13T05:35:57.239Z,96141.25
2023-01-13T05:38:30.176Z,96127.88
2023-01-13T05:41:22.202Z,96132.44
2023-01-13T05:43:54.974Z,96140.00
2023-01-13T05:46:28.021Z,96123.19
2023-01-13T05:49:01.808Z,96121.19
2023-01-13T05:51:34.815Z,96131.75
2023-01-13T05:54:07.733Z,96132.75
2023-01-13T05:56:42.022Z,96145.31
2023-01-13T05:59:14.936Z,96145.50
2023-01-13T06:01:47.966Z,96125.13
2023-01-13T06:04:21.091Z,96126.56
2023-01-13T06:06:54.190Z,96137.25
2023-01-13T06:09:27.414Z,96137.94
2023-01-13T06:12:02.172Z,96117.34
2023-01-13T06:14:41.110Z,96123.00
2023-01-13T06:17:16.511Z,96127.13
2023-01-13T06:19:49.382Z,96125.53
2023-01-13T06:22:28.008Z,96133.09
2023-01-13T06:25:00.926Z,96133.00
2023-01-13T06:27:35.765Z,96130.31
2023-01-13T06:30:10.176Z,96139.75
2023-01-13T06:32:47.125Z,96137.41
2023-01-13T06:35:24.884Z,96123.28
2023-01-13T06:38:01.033Z,96129.28
2023-01-13T06:40:34.040Z,96135.28
2023-01-13T06:43:17.352Z,96125.06
2023-01-13T06:45:53.980Z,96132.94
2023-01-13T06:48:33.171Z,96143.94
2023-01-13T06:51:06.540Z,96135.50
2023-01-13T06:53:40.924Z,96125.59
2023-01-13T06:56:14.207Z,96126.22
2023-01-13T06:58:48.691Z,96122.13
2023-01-13T07:01:21.724Z,96129.69
2023-01-13T07:03:54.721Z,96136.59
2023-01-13T07:06:27.742Z,96128.91
2023-01-13T07:09:00.708Z,96122.78
2023-01-13T07:11:33.593Z,96122.47
2023-01-13T07:14:25.592Z,96108.00
2023-01-13T07:16:58.280Z,96127.00
2023-01-13T07:19:31.274Z,96118.34
2023-01-13T07:22:04.218Z,96137.03
2023-01-13T07:24:37.102Z,96124.47
2023-01-13T07:27:10.054Z,96110.66
2023-01-13T07:29:44.694Z,96111.09
2023-01-13T07:32:17.567Z,96111.09
2023-01-13T07:34:50.582Z,96117.22
2023-01-13T07:37:23.465Z,96122.91
2023-01-13T07:39:56.381Z,96124.34
2023-01-13T07:42:47.023Z,96130.00
2023-01-13T07:45:21.306Z,96122.31
2023-01-13T07:47:54.809Z,96116.53
2023-01-13T07:50:27.856Z,96120.31
2023-01-13T07:53:00.814Z,96123.75
2023-01-13T07:55:34.292Z,96130.66
2023-01-13T07:58:07.896Z,96116.66
2023-01-13T08:00:42.244Z,96129.69
2023-01-13T08:03:15.161Z,96133.91
2023-01-13T08:05:48.813Z,96131.56
2023-01-13T08:08:21.955Z,96146.97
2023-01-13T08:10:54.913Z,96132.47
2023-01-13T08:13:27.905Z,96142.50
2023-01-13T08:16:04.175Z,96136.63
2023-01-13T08:18:38.281Z,96139.44
2023-01-13T08:21:13.528Z,96151.47
2023-01-13T08:23:48.329Z,96145.50
2023-01-13T08:26:21.869Z,96141.81
2023-01-13T08:28:54.726Z,96138.97
2023-01-13T08:31:29.321Z,96151.00
2023-01-13T08:34:02.198Z,96147.69
2023-01-13T08:36:38.300Z,96162.38
2023-01-13T08:39:11.229Z,96159.06
2023-01-13T08:41:56.779Z,96161.19
2023-01-13T08:44:31.853Z,96167.09
2023-01-13T08:47:09.016Z,96156.22
2023-01-13T08:49:42.049Z,96161.34
2023-01-13T08:52:18.159Z,96167.13
2023-01-13T08:54:51.122Z,96161.88
2023-01-13T08:57:24.281Z,96163.91
2023-01-13T08:59:57.744Z,96162.81
2023-01-13T09:02:35.439Z,96168.28
2023-01-13T09:05:10.219Z,96164.47
2023-01-13T09:07:43.613Z,96164.47
2023-01-13T09:10:16.709Z,96173.72
2023-01-13T09:13:07.124Z,96172.28
2023-01-13T09:15:40.959Z,96180.03
2023-01-13T09:18:15.633Z,96190.03
2023-01-13T09:20:48.578Z,96179.47
2023-01-13T09:23:21.467Z,96194.50
2023-01-13T09:25:54.472Z,96185.97
2023-01-13T09:28:27.304Z,96200.00
2023-01-13T09:31:02.102Z,96202.91
2023-01-13T09:33:53.717Z,96197.53
2023-01-13T09:36:26.778Z,96195.88
2023-01-13T09:39:00.014Z,96199.56
2023-01-13T09:41:53.960Z,96203.56
2023-01-13T09:44:32.764Z,96206.34
2023-01-13T09:47:14.132Z,96214.84
2023-01-13T09:49:48.650Z,96206.00
2023-01-13T09:52:26.656Z,96209.81
2023-01-13T09:55:05.537Z,96220.09
2023-01-13T09:57:40.008Z,96214.94
2023-01-13T10:00:15.991Z,96208.72
2023-01-13T10:03:05.781Z,96222.75
2023-01-13T10:05:44.273Z,96216.88
2023-01-13T10:08:23.693Z,96229.34
2023-01-13T10:10:59.761Z,96203.22
2023-01-13T10:13:33.805Z,96213.94
2023-01-13T10:16:25.012Z,96220.97
2023-01-13T10:19:07.223Z,96207.34
2023-01-13T10:22:13.291Z,96216.38
2023-01-13T10:25:18.533Z,96236.94
2023-01-13T10:27:55.362Z,96239.94
2023-01-13T10:30:31.619Z,96234.44
2023-01-13T10:33:12.495Z,96249.28
2023-01-13T10:36:14.736Z,96249.94
2023-01-13T10:38:49.337Z,96249.38
2023-01-13T10:41:26.627Z,96268.38
2023-01-13T10:44:04.567Z,96252.38
2023-01-13T10:46:52.867Z,96285.09
2023-01-13T10:49:31.303Z,96272.81
2023-01-13T10:52:05.812Z,96262.09
2023-01-13T10:54:52.931Z,96284.31
2023-01-13T10:57:28.076Z,96263.88
2023-01-13T11:00:06.128Z,96267.91
2023-01-13T11:02:39.122Z,96266.94
2023-01-13T11:05:26.252Z,96267.13
2023-01-13T11:07:59.199Z,96272.63
2023-01-13T11:10:34.144Z,96272.06
2023-01-13T11:13:12.719Z,96276.97
2023-01-13T11:15:55.588Z,96287.59
2023-01-13T11:18:41.012Z,96275.97
2023-01-13T11:21:22.596Z,96277.41
2023-01-13T11:24:05.905Z,96285.34
2023-01-13T11:26:45.950Z,96275.63
2023-01-13T11:29:25.344Z,96281.22
2023-01-13T11:32:09.957Z,96289.59
2023-01-13T11:34:45.735Z,96285.25
2023-01-13T11:37:24.731Z,96288.25
2023-01-13T11:40:06.167Z,96271.72
2023-01-13T11:42:44.929Z,96268.28
2023-01-13T11:45:22.709Z,96243.84
2023-01-13T11:48:01.671Z,96245.28
2023-01-13T11:50:42.584Z,96252.53
2023-01-13T11:53:31.830Z,96249.75
2023-01-13T11:56:17.620Z,96250.28
2023-01-13T11:59:25.184Z,96253.44
2023-01-13T12:02:11.284Z,96248.81
2023-01-13T12:04:58.637Z,96245.47
2023-01-13T12:07:43.473Z,96260.38
2023-01-13T12:10:26.167Z,96266.56
2023-01-13T12:13:09.154Z,96265.53
2023-01-13T12:16:06.106Z,96255.06
2023-01-13T12:19:07.646Z,96236.19
2023-01-13T12:21:58.002Z,96249.25
2023-01-13T12:24:35.234Z,96247.03
2023-01-13T12:27:15.146Z,96242.56
2023-01-13T12:29:52.785Z,96253.06
2023-01-13T12:32:33.122Z,96265.59
2023-01-13T12:35:21.091Z,96258.59
2023-01-13T12:38:02.880Z,96254.28
2023-01-13T12:40:49.427Z,96249.16
2023-01-13T12:43:46.903Z,96257.41
2023-01-13T12:46:47.017Z,96261.22
2023-01-13T12:49:31.634Z,96259.44
2023-01-13T12:52:18.376Z,96260.00
2023-01-13T12:55:15.808Z,96265.94
2023-01-13T12:58:19.464Z,96253.88
2023-01-13T13:01:01.376Z,96258.25
2023-01-13T13:03:36.588Z,96273.28
2023-01-13T13:06:15.328Z,96267.72
2023-01-13T13:09:04.364Z,96278.19
2023-01-13T13:11:59.696Z,96274.09
2023-01-13T13:15:03.855Z,96275.75
2023-01-13T13:17:44.520Z,96268.94
2023-01-13T13:20:55.196Z,96259.56
2023-01-13T13:23:48.401Z,96250.41
2023-01-13T13:26:33.854Z,96261.69
2023-01-13T13:29:30.142Z,96275.88
2023-01-13T13:32:43.660Z,96265.38
2023-01-13T13:35:39.285Z,96252.31
2023-01-13T13:38:41.297Z,96256.09
2023-01-13T13:41:32.843Z,96247.06
2023-01-13T13:44:32.475Z,96261.94
2023-01-13T13:47:09.015Z,96266.28
2023-01-13T13:49:45.862Z,96268.38
2023-01-13T13:52:23.550Z,96252.88
2023-01-13T13:54:59.646Z,96275.97
2023-01-13T13:57:36.965Z,96273.84
2023-01-13T14:00:23.297Z,96276.41
2023-01-13T14:03:01.995Z,96290.81
2023-01-13T14:05:36.357Z,96291.00
2023-01-13T14:08:15.468Z,96299.34
2023-01-13T14:10:48.709Z,96292.34
2023-01-13T14:13:23.949Z,96288.75
2023-01-13T14:15:58.699Z,96297.63
2023-01-13T14:18:35.252Z,96299.44
2023-01-13T14:21:20.689Z,96304.53
2023-01-13T14:23:56.061Z,96317.22
2023-01-13T14:26:31.629Z,96322.25
2023-01-13T14:29:05.242Z,96324.69
2023-01-13T14:31:40.449Z,96333.69
2023-01-13T14:34:31.891Z,96341.91
2023-01-13T14:37:25.063Z,96353.59
2023-01-13T14:39:58.138Z,96358.47
2023-01-13T14:42:35.318Z,96355.00
2023-01-13T14:45:24.604Z,96366.94
2023-01-13T14:48:01.730Z,96368.19
2023-01-13T14:50:36.265Z,96374.91
2023-01-13T14:53:31.903Z,96378.94
2023-01-13T14:56:40.237Z,96366.28
2023-01-13T14:59:46.634Z,96369.25
2023-01-13T15:02:44.763Z,96375.31
2023-01-13T15:05:49.285Z,96372.44
2023-01-13T15:08:38.255Z,96370.97
2023-01-13T15:11:25.209Z,96385.94
2023-01-13T15:14:02.639Z,96400.88
2023-01-13T15:16:36.858Z,96393.31
2023-01-13T15:19:11.058Z,96397.22
2023-01-13T15:21:45.493Z,96391.22
2023-01-13T15:24:18.442Z,96389.00
2023-01-13T15:26:52.053Z,96389.44
2023-01-13T15:29:25.057Z,96386.00
2023-01-13T15:31:57.927Z,96402.50
2023-01-13T15:34:30.823Z,96433.94
2023-01-13T15:37:05.074Z,96450.31
2023-01-13T15:39:37.991Z,96471.63
2023-01-13T15:42:31.573Z,96488.31
2023-01-13T15:45:22.307Z,96503.53
2023-01-13T15:47:55.941Z,96513.84
2023-01-13T15:50:28.996Z,96507.03
2023-01-13T15:53:03.509Z,96509.31
2023-01-13T15:55:39.633Z,96526.53
2023-01-13T15:58:14.272Z,96527.69
2023-01-13T16:00:47.776Z,96533.84
2023-01-13T16:03:20.906Z,96524.78
2023-01-13T16:05:54.282Z,96540.97
2023-01-13T16:08:28.795Z,96548.03
2023-01-13T16:11:02.262Z,96544.13
2023-01-13T16:13:35.187Z,96545.53
2023-01-13T16:16:19.579Z,96545.81
2023-01-13T16:18:53.162Z,96563.19
2023-01-13T16:21:32.113Z,96561.78
2023-01-13T16:24:06.748Z,96568.19
2023-01-13T16:26:40.115Z,96563.31
2023-01-13T16:29:13.988Z,96569.56
2023-01-13T16:31:49.873Z,96578.50
2023-01-13T16:34:25.719Z,96570.81
2023-01-13T16:36:59.232Z,96567.19
2023-01-13T16:39:34.169Z,96572.53
2023-01-13T16:42:07.977Z,96565.44
2023-01-13T16:44:41.326Z,96565.28
2023-01-13T16:47:17.820Z,96575.28
2023-01-13T16:49:50.940Z,96579.69
2023-01-13T16:52:24.016Z,96573.38
2023-01-13T16:55:00.845Z,96568.19
2023-01-13T16:57:34.218Z,96573.03
2023-01-13T17:00:08.640Z,96572.56
2023-01-13T17:02:41.847Z,96562.97
2023-01-13T17:05:15.597Z,96567.22
2023-01-13T17:07:49.411Z,96573.81
2023-01-13T17:10:26.127Z,96574.31
2023-01-13T17:13:04.542Z,96576.34
2023-01-13T17:15:47.039Z,96570.72
2023-01-13T17:18:20.217Z,96568.22
2023-01-13T17:20:53.220Z,96583.28
2023-01-13T17:23:26.226Z,96592.56
2023-01-13T17:26:02.857Z,96622.03
2023-01-13T17:28:35.872Z,96624.69
2023-01-13T17:31:09.270Z,96623.78
2023-01-13T17:33:45.309Z,96633.97
2023-01-13T17:36:18.276Z,96634.63
2023-01-13T17:38:51.604Z,96631.63
2023-01-13T17:41:27.364Z,96633.22
2023-01-13T17:44:03.544Z,96614.84
2023-01-13T17:46:36.707Z,96602.66
2023-01-13T17:49:11.958Z,96611.25
2023-01-13T17:51:48.384Z,96616.88
2023-01-13T17:54:22.793Z,96620.94
2023-01-13T17:57:00.170Z,96618.59
2023-01-13T17:59:33.837Z,96616.84
2023-01-13T18:02:07.142Z,96626.22
2023-01-13T18:04:40.585Z,96623.41
2023-01-13T18:07:16.159Z,96624.78
2023-01-13T18:09:49.297Z,96628.38
2023-01-13T18:12:23.823Z,96638.56
2023-01-13T18:14:57.260Z,96645.13
2023-01-13T18:17:30.230Z,96647.59
2023-01-13T18:20:20.680Z,96650.38
2023-01-13T18:23:11.143Z,96650.19
2023-01-13T18:26:01.676Z,96656.91
2023-01-13T18:28:36.098Z,96653.00
2023-01-13T18:31:10.448Z,96659.72
2023-01-13T18:33:43.508Z,96656.06
2023-01-13T18:36:16.816Z,96657.47
2023-01-13T18:38:51.400Z,96657.28
2023-01-13T18:41:53.516Z,96660.25
2023-01-13T18:44:28.062Z,96658.97
2023-01-13T18:47:01.098Z,96678.09
2023-01-13T18:49:34.128Z,96678.28
2023-01-13T18:52:07.310Z,96682.53
2023-01-13T18:54:41.049Z,96682.41
2023-01-13T18:57:14.416Z,96690.88
2023-01-13T18:59:49.217Z,96695.28
2023-01-13T19:02:23.578Z,96696.06
2023-01-13T19:04:57.626Z,96702.69
2023-01-13T19:07:32.249Z,96716.50
2023-01-13T19:10:06.679Z,96722.63
2023-01-13T19:12:40.305Z,96732.19
2023-01-13T19:15:15.000Z,96725.16
2023-01-13T19:17:48.257Z,96739.75
2023-01-13T19:20:22.464Z,96739.75
2023-01-13T19:22:55.958Z,96734.72
2023-01-13T19:25:29.229Z,96744.78
2023-01-13T19:28:04.766Z,96734.28
2023-01-13T19:30:39.296Z,96727.09
2023-01-13T19:33:14.189Z,96722.25
2023-01-13T19:35:47.364Z,96724.91
2023-01-13T19:38:20.512Z,96716.91
2023-01-13T19:40:55.094Z,96731.03
2023-01-13T19:43:46.232Z,96730.09
2023-01-13T19:46:20.672Z,96743.44
2023-01-13T19:48:53.759Z,96745.78
2023-01-13T19:51:27.009Z,96756.94
2023-01-13T19:54:03.353Z,96763.22
2023-01-13T19:56:37.120Z,96784.56
2023-01-13T19:59:10.865Z,96802.13
2023-01-13T20:01:45.724Z,96836.97
2023-01-13T20:04:26.934Z,96854.53
2023-01-13T20:07:00.122Z,96842.59
2023-01-13T20:09:34.087Z,96817.66
2023-01-13T20:12:10.441Z,96821.69
2023-01-13T20:14:45.369Z,96793.09
2023-01-13T20:17:22.235Z,96801.53
2023-01-13T20:19:55.716Z,96798.44
2023-01-13T20:22:28.909Z,96812.19
2023-01-13T20:25:02.043Z,96811.31
2023-01-13T20:27:35.260Z,96817.28
2023-01-13T20:30:11.054Z,96824.84
2023-01-13T20:32:47.183Z,96823.69
2023-01-13T20:35:20.657Z,96825.16
2023-01-13T20:37:53.905Z,96821.53
2023-01-13T20:40:28.503Z,96817.38
2023-01-13T20:43:00.407Z,96820.34
2023-01-13T20:45:34.092Z,96835.84
2023-01-13T20:48:08.873Z,96849.16
2023-01-13T20:50:44.976Z,96846.78
2023-01-13T20:53:18.053Z,96861.16
2023-01-13T20:55:53.294Z,96852.69
2023-01-13T20:58:26.596Z,96867.00
2023-01-13T21:01:00.117Z,96862.75
2023-01-13T21:03:40.113Z,96867.78
2023-01-13T21:06:21.184Z,96866.19
2023-01-13T21:08:55.366Z,96848.06
2023-01-13T21:11:47.084Z,96844.00
2023-01-13T21:14:39.587Z,96847.94
2023-01-13T21:17:38.871Z,96843.63
2023-01-13T21:20:14.521Z,96840.66
2023-01-13T21:22:49.594Z,96845.97
2023-01-13T21:25:24.127Z,96846.75
2023-01-13T21:28:04.547Z,96852.88
2023-01-13T21:30:38.997Z,96854.28
2023-01-13T21:33:14.916Z,96858.19
2023-01-13T21:35:49.383Z,96852.88
2023-01-13T21:38:22.819Z,96852.88
2023-01-13T21:41:01.249Z,96848.63
2023-01-13T21:43:52.246Z,96849.25
2023-01-13T21:46:43.087Z,96842.13
2023-01-13T21:49:16.448Z,96836.41
2023-01-13T21:51:52.626Z,96827.75
2023-01-13T21:54:25.767Z,96832.19
2023-01-13T21:56:58.999Z,96837.13
2023-01-13T21:59:32.670Z,96837.47
2023-01-13T22:02:26.189Z,96842.38
2023-01-13T22:05:00.879Z,96860.00
2023-01-13T22:07:36.808Z,96865.63
2023-01-13T22:10:14.577Z,96865.13
2023-01-13T22:12:48.569Z,96878.91
2023-01-13T22:15:22.413Z,96875.66
2023-01-13T22:17:56.889Z,96882.28
2023-01-13T22:20:30.001Z,96883.56
2023-01-13T22:23:05.863Z,96889.31
2023-01-13T22:25:39.093Z,96890.09
2023-01-13T22:28:14.388Z,96883.13
2023-01-13T22:30:52.225Z,96893.38
2023-01-13T22:33:25.802Z,96893.88
2023-01-13T22:36:01.834Z,96884.72
2023-01-13T22:38:36.577Z,96897.41
2023-01-13T22:41:10.537Z,96892.31
2023-01-13T22:43:44.812Z,96897.06
2023-01-13T22:46:20.865Z,96902.56
2023-01-13T22:48:56.293Z,96897.75
2023-01-13T22:51:31.572Z,96889.47
2023-01-13T22:54:06.755Z,96889.97
2023-01-13T22:56:40.737Z,96884.63
2023-01-13T22:59:14.619Z,96891.53
2023-01-13T23:01:47.726Z,96892.91
2023-01-13T23:04:20.922Z,96889.53
2023-01-13T23:06:54.150Z,96889.34
2023-01-13T23:09:30.098Z,96880.69
2023-01-13T23:12:03.201Z,96878.09
2023-01-13T23:14:37.608Z,96881.16
2023-01-13T23:17:12.250Z,96870.91
2023-01-13T23:19:45.306Z,96875.50
2023-01-13T23:22:18.574Z,96875.09
2023-01-13T23:24:54.847Z,96862.47
2023-01-13T23:27:28.005Z,96870.81
2023-01-13T23:30:01.045Z,96863.69
2023-01-13T23:32:36.337Z,96863.00
2023-01-13T23:35:10.097Z,96860.72
2023-01-13T23:37:43.775Z,96865.53
2023-01-13T23:40:19.417Z,96860.00
2023-01-13T23:42:52.824Z,96861.88
2023-01-13T23:45:26.351Z,96861.88
2023-01-13T23:48:00.117Z,96874.41
2023-01-13T23:50:34.282Z,96869.28
2023-01-13T23:53:07.607Z,96866.84
2023-01-13T23:55:44.486Z,96866.75
2023-01-13T23:58:17.558Z,96865.09
